createdAt,value
2018-10-12T00:01:11.503Z,28.40
2018-10-12T00:03:40.626Z,32.33
2018-10-12T00:06:09.848Z,31.70
2018-10-12T00:08:39.868Z,34.63
2018-10-12T00:11:10.295Z,31.10
2018-10-12T00:13:40.308Z,33.63
2018-10-12T00:16:09.657Z,28.47
2018-10-12T00:18:40.303Z,33.50
2018-10-12T00:21:09.491Z,39.73
2018-10-12T00:23:39.001Z,27.87
2018-10-12T00:26:09.173Z,31.33
2018-10-12T00:28:39.212Z,34.23
2018-10-12T00:31:08.076Z,35.13
2018-10-12T00:33:37.581Z,32.33
2018-10-12T00:36:06.915Z,38.87
2018-10-12T00:38:37.548Z,41.73
2018-10-12T00:41:07.748Z,29.83
2018-10-12T00:43:38.471Z,28.97
2018-10-12T00:46:09.494Z,36.97
2018-10-12T00:48:38.510Z,30.60
2018-10-12T00:51:08.114Z,26.93
2018-10-12T00:53:37.427Z,33.40
2018-10-12T00:56:07.639Z,33.57
2018-10-12T00:58:36.938Z,43.27
2018-10-12T01:01:07.381Z,37.47
2018-10-12T01:03:36.470Z,45.10
2018-10-12T01:06:06.044Z,43.93
2018-10-12T01:08:35.686Z,34.97
2018-10-12T01:11:05.459Z,34.67
2018-10-12T01:13:35.097Z,31.00
2018-10-12T01:16:05.117Z,36.53
2018-10-12T01:18:34.851Z,32.90
2018-10-12T01:21:04.248Z,36.73
2018-10-12T01:23:33.529Z,36.93
2018-10-12T01:26:03.994Z,30.33
2018-10-12T01:28:34.605Z,33.20
2018-10-12T01:31:04.195Z,31.70
2018-10-12T01:33:34.749Z,30.90
2018-10-12T01:36:03.836Z,48.97
2018-10-12T01:38:32.908Z,43.63
2018-10-12T01:41:01.732Z,32.60
2018-10-12T01:43:31.152Z,32.17
2018-10-12T01:46:00.812Z,29.70
2018-10-12T01:48:30.140Z,33.30
2018-10-12T01:50:59.470Z,34.27
2018-10-12T01:53:28.717Z,33.63
2018-10-12T01:56:04.341Z,44.03
2018-10-12T01:58:34.085Z,28.70
2018-10-12T02:01:03.716Z,31.00
2018-10-12T02:03:32.972Z,42.23
2018-10-12T02:06:01.770Z,40.70
2018-10-12T02:08:30.565Z,39.40
2018-10-12T02:10:59.632Z,33.07
2018-10-12T02:13:28.983Z,35.57
2018-10-12T02:15:57.949Z,33.00
2018-10-12T02:18:29.114Z,34.10
2018-10-12T02:20:58.808Z,31.97
2018-10-12T02:23:29.722Z,35.83
2018-10-12T02:25:59.251Z,31.10
2018-10-12T02:28:29.739Z,42.80
2018-10-12T02:30:59.029Z,34.37
2018-10-12T02:33:29.320Z,34.00
2018-10-12T02:35:58.858Z,30.40
2018-10-12T02:38:28.419Z,35.00
2018-10-12T02:40:58.100Z,32.60
2018-10-12T02:43:27.554Z,35.93
2018-10-12T02:45:57.781Z,34.30
2018-10-12T02:48:26.884Z,39.40
2018-10-12T02:50:56.082Z,36.80
2018-10-12T02:53:25.653Z,48.80
2018-10-12T02:55:55.499Z,34.10
2018-10-12T02:58:27.158Z,34.60
2018-10-12T03:00:56.183Z,36.63
2018-10-12T03:03:25.912Z,35.23
2018-10-12T03:05:56.444Z,34.00
2018-10-12T03:08:28.607Z,32.93
2018-10-12T03:10:58.342Z,31.10
2018-10-12T03:13:27.410Z,33.27
2018-10-12T03:15:57.697Z,43.90
2018-10-12T03:18:27.637Z,38.00
2018-10-12T03:20:57.281Z,34.97
2018-10-12T03:23:27.526Z,37.83
2018-10-12T03:25:57.942Z,38.13
2018-10-12T03:28:30.359Z,34.77
2018-10-12T03:31:00.443Z,42.80
2018-10-12T03:33:30.344Z,48.07
2018-10-12T03:36:00.135Z,39.53
2018-10-12T03:38:29.211Z,37.17
2018-10-12T03:40:58.077Z,36.47
2018-10-12T03:43:26.893Z,33.07
2018-10-12T03:45:55.715Z,35.03
2018-10-12T03:48:24.481Z,37.57
2018-10-12T03:50:53.816Z,44.47
2018-10-12T03:53:22.575Z,33.67
2018-10-12T03:55:51.276Z,42.13
2018-10-12T03:58:20.029Z,55.33
2018-10-12T04:00:49.343Z,34.67
2018-10-12T04:03:18.463Z,41.10
2018-10-12T04:05:47.825Z,37.87
2018-10-12T04:08:17.179Z,44.63
2018-10-12T04:10:46.845Z,36.60
2018-10-12T04:13:15.972Z,37.80
2018-10-12T04:15:45.743Z,35.70
2018-10-12T04:18:16.480Z,36.43
2018-10-12T04:20:46.608Z,35.40
2018-10-12T04:23:15.697Z,36.73
2018-10-12T04:25:45.502Z,37.67
2018-10-12T04:28:14.694Z,39.33
2018-10-12T04:30:46.277Z,36.67
2018-10-12T04:33:16.936Z,39.73
2018-10-12T04:35:46.644Z,32.47
2018-10-12T04:38:15.647Z,35.83
2018-10-12T04:41:20.418Z,44.57
2018-10-12T04:43:52.032Z,41.47
2018-10-12T04:46:25.503Z,52.60
2018-10-12T04:48:54.658Z,36.80
2018-10-12T04:51:27.455Z,42.30
2018-10-12T04:53:56.789Z,43.30
2018-10-12T04:56:27.024Z,37.77
2018-10-12T04:58:56.092Z,34.67
2018-10-12T05:01:24.856Z,40.97
2018-10-12T05:03:54.011Z,46.43
2018-10-12T05:06:22.768Z,35.97
2018-10-12T05:08:51.651Z,54.70
2018-10-12T05:11:20.695Z,40.83
2018-10-12T05:13:51.407Z,50.53
2018-10-12T05:16:21.448Z,45.87
2018-10-12T05:18:50.751Z,43.70
2018-10-12T05:21:20.665Z,41.47
2018-10-12T05:23:50.051Z,38.07
2018-10-12T05:26:19.977Z,43.80
2018-10-12T05:28:50.213Z,51.30
2018-10-12T05:31:19.796Z,42.53
2018-10-12T05:33:49.360Z,47.43
2018-10-12T05:36:19.548Z,47.40
2018-10-12T05:38:49.072Z,40.53
2018-10-12T05:41:18.059Z,51.07
2018-10-12T05:43:47.173Z,39.80
2018-10-12T05:46:16.024Z,34.90
2018-10-12T05:48:55.987Z,39.93
2018-10-12T05:51:26.219Z,40.07
2018-10-12T05:53:55.030Z,57.37
2018-10-12T05:56:26.223Z,51.07
2018-10-12T05:58:55.429Z,44.83
2018-10-12T06:01:24.376Z,46.60
2018-10-12T06:03:53.589Z,47.67
2018-10-12T06:06:22.624Z,36.57
2018-10-12T06:08:51.604Z,53.40
2018-10-12T06:11:20.838Z,45.80
2018-10-12T06:13:51.230Z,41.93
2018-10-12T06:16:21.122Z,40.80
2018-10-12T06:18:50.780Z,50.80
2018-10-12T06:21:20.556Z,50.77
2018-10-12T06:23:50.224Z,50.83
2018-10-12T06:26:20.534Z,50.20
2018-10-12T06:28:50.141Z,53.70
2018-10-12T06:31:19.820Z,58.17
2018-10-12T06:33:49.360Z,45.03
2018-10-12T06:36:20.001Z,53.37
2018-10-12T06:38:49.709Z,42.10
2018-10-12T06:41:19.548Z,44.87
2018-10-12T06:43:49.216Z,43.77
2018-10-12T06:46:18.741Z,39.30
2018-10-12T06:48:48.274Z,43.23
2018-10-12T06:51:18.794Z,46.47
2018-10-12T06:53:48.614Z,59.50
2018-10-12T06:56:18.072Z,44.50
2018-10-12T06:58:46.923Z,45.87
2018-10-12T07:01:16.322Z,42.70
2018-10-12T07:03:45.743Z,47.60
2018-10-12T07:06:14.588Z,50.13
2018-10-12T07:08:44.215Z,41.53
2018-10-12T07:11:13.433Z,47.97
2018-10-12T07:13:42.265Z,44.43
2018-10-12T07:16:11.471Z,42.97
2018-10-12T07:18:40.367Z,43.17
2018-10-12T07:21:10.171Z,48.03
2018-10-12T07:23:38.937Z,38.13
2018-10-12T07:26:08.419Z,47.37
2018-10-12T07:28:37.186Z,48.50
2018-10-12T07:31:06.787Z,41.23
2018-10-12T07:33:36.649Z,56.60
2018-10-12T07:36:05.457Z,47.80
2018-10-12T07:38:34.563Z,46.00
2018-10-12T07:41:03.307Z,47.53
2018-10-12T07:43:32.163Z,44.40
2018-10-12T07:46:00.929Z,47.70
2018-10-12T07:48:31.563Z,37.20
2018-10-12T07:51:01.321Z,40.83
2018-10-12T07:53:30.179Z,36.93
2018-10-12T07:55:59.382Z,39.57
2018-10-12T07:58:28.105Z,55.67
2018-10-12T08:00:57.184Z,41.30
2018-10-12T08:03:26.190Z,39.93
2018-10-12T08:05:54.949Z,45.97
2018-10-12T08:08:23.692Z,39.17
2018-10-12T08:10:52.666Z,49.43
2018-10-12T08:13:21.616Z,43.07
2018-10-12T08:15:53.242Z,43.13
2018-10-12T08:18:22.246Z,33.70
2018-10-12T08:20:51.038Z,50.60
2018-10-12T08:23:19.937Z,33.83
2018-10-12T08:25:49.192Z,50.77
2018-10-12T08:28:18.506Z,35.90
2018-10-12T08:30:47.311Z,36.80
2018-10-12T08:33:16.485Z,36.53
2018-10-12T08:35:45.356Z,35.57
2018-10-12T08:38:14.295Z,38.37
2018-10-12T08:40:43.143Z,44.83
2018-10-12T08:43:12.310Z,40.47
2018-10-12T08:45:41.644Z,36.67
2018-10-12T08:48:12.580Z,34.40
2018-10-12T08:50:42.017Z,35.53
2018-10-12T08:53:10.916Z,38.37
2018-10-12T08:55:40.616Z,36.00
2018-10-12T08:58:09.309Z,42.47
2018-10-12T09:00:39.701Z,41.20
2018-10-12T09:03:09.107Z,36.13
2018-10-12T09:05:38.045Z,36.30
2018-10-12T09:08:06.855Z,38.63
2018-10-12T09:10:35.641Z,34.67
2018-10-12T09:13:06.505Z,34.60
2018-10-12T09:15:35.440Z,39.83
2018-10-12T09:18:04.577Z,40.83
2018-10-12T09:20:33.488Z,48.00
2018-10-12T09:23:02.556Z,45.20
2018-10-12T09:25:31.439Z,38.10
2018-10-12T09:28:00.648Z,38.33
2018-10-12T09:30:29.655Z,48.43
2018-10-12T09:32:58.508Z,55.07
2018-10-12T09:35:27.243Z,38.67
2018-10-12T09:37:56.003Z,34.57
2018-10-12T09:40:24.867Z,42.43
2018-10-12T09:42:54.337Z,35.50
2018-10-12T09:45:23.393Z,49.63
2018-10-12T09:47:52.202Z,33.40
2018-10-12T09:50:21.346Z,43.00
2018-10-12T09:52:50.218Z,40.57
2018-10-12T09:55:19.304Z,37.70
2018-10-12T09:57:48.078Z,37.83
2018-10-12T10:00:22.080Z,54.50
2018-10-12T10:02:56.200Z,36.37
2018-10-12T10:05:24.925Z,36.93
2018-10-12T10:07:54.165Z,36.40
2018-10-12T10:10:22.831Z,31.90
2018-10-12T10:12:51.553Z,33.93
2018-10-12T10:15:20.291Z,43.67
2018-10-12T10:17:49.125Z,45.00
2018-10-12T10:20:18.345Z,42.83
2018-10-12T10:22:47.154Z,34.90
2018-10-12T10:25:16.534Z,32.67
2018-10-12T10:27:45.322Z,49.10
2018-10-12T10:30:14.214Z,30.87
2018-10-12T10:32:42.928Z,32.17
2018-10-12T10:35:12.819Z,31.63
2018-10-12T10:37:43.034Z,38.60
2018-10-12T10:40:11.975Z,36.40
2018-10-12T10:42:41.050Z,37.30
2018-10-12T10:45:09.850Z,41.50
2018-10-12T10:47:38.700Z,30.50
2018-10-12T10:50:07.828Z,37.07
2018-10-12T10:52:36.688Z,28.30
2018-10-12T10:55:05.499Z,30.37
2018-10-12T10:57:34.210Z,32.40
2018-10-12T11:00:03.375Z,30.43
2018-10-12T11:02:32.405Z,32.20
2018-10-12T11:05:01.278Z,39.83
2018-10-12T11:07:30.371Z,31.03
2018-10-12T11:09:59.092Z,30.30
2018-10-12T11:12:28.513Z,40.47
2018-10-12T11:14:57.858Z,33.70
2018-10-12T11:17:26.700Z,30.97
2018-10-12T11:19:55.856Z,27.67
2018-10-12T11:22:24.639Z,40.03
2018-10-12T11:24:53.937Z,38.60
2018-10-12T11:27:22.893Z,28.80
2018-10-12T11:29:51.668Z,40.97
2018-10-12T11:32:20.888Z,26.10
2018-10-12T11:34:50.126Z,29.63
2018-10-12T11:37:18.874Z,37.87
2018-10-12T11:39:48.074Z,27.63
2018-10-12T11:42:17.523Z,41.07
2018-10-12T11:44:46.473Z,33.93
2018-10-12T11:47:15.422Z,37.33
2018-10-12T11:49:44.240Z,33.03
2018-10-12T11:52:13.028Z,24.37
2018-10-12T11:54:42.247Z,28.13
2018-10-12T11:57:11.362Z,40.83
2018-10-12T11:59:40.782Z,25.60
2018-10-12T12:02:09.575Z,29.33
2018-10-12T12:04:51.185Z,27.30
2018-10-12T12:07:20.160Z,38.07
2018-10-12T12:09:49.777Z,31.10
2018-10-12T12:12:18.690Z,43.53
2018-10-12T12:14:47.989Z,32.47
2018-10-12T12:17:16.855Z,27.37
2018-10-12T12:19:45.730Z,22.70
2018-10-12T12:22:14.487Z,28.30
2018-10-12T12:24:43.798Z,30.83
2018-10-12T12:27:12.674Z,31.33
2018-10-12T12:29:41.809Z,22.00
2018-10-12T12:32:10.910Z,30.33
2018-10-12T12:34:40.019Z,29.90
2018-10-12T12:37:09.272Z,27.50
2018-10-12T12:39:39.486Z,25.43
2018-10-12T12:42:09.037Z,29.30
2018-10-12T12:44:38.569Z,30.27
2018-10-12T12:47:07.767Z,44.37
2018-10-12T12:49:36.534Z,35.83
2018-10-12T12:52:05.328Z,36.63
2018-10-12T12:54:34.730Z,30.37
2018-10-12T12:57:04.105Z,27.90
2018-10-12T12:59:33.118Z,36.63
2018-10-12T13:02:02.517Z,61.83
2018-10-12T13:04:31.686Z,25.67
2018-10-12T13:07:00.850Z,25.13
2018-10-12T13:09:30.069Z,34.33
2018-10-12T13:11:58.855Z,25.60
2018-10-12T13:14:27.645Z,32.10
2018-10-12T13:16:56.721Z,35.90
2018-10-12T13:19:25.516Z,32.50
2018-10-12T13:21:54.503Z,34.10
2018-10-12T13:24:24.600Z,27.90
2018-10-12T13:26:53.900Z,29.80
2018-10-12T13:29:22.968Z,31.80
2018-10-12T13:31:51.856Z,33.53
2018-10-12T13:34:20.661Z,23.50
2018-10-12T13:36:49.610Z,25.93
2018-10-12T13:39:18.845Z,27.23
2018-10-12T13:41:48.211Z,27.07
2018-10-12T13:44:17.157Z,25.27
2018-10-12T13:46:46.064Z,25.50
2018-10-12T13:49:15.208Z,28.37
2018-10-12T13:51:44.025Z,22.23
2018-10-12T13:54:13.155Z,22.80
2018-10-12T13:56:41.986Z,28.50
2018-10-12T13:59:10.853Z,25.37
2018-10-12T14:01:39.835Z,28.40
2018-10-12T14:04:08.611Z,22.80
2018-10-12T14:06:37.681Z,25.03
2018-10-12T14:09:07.759Z,25.73
2018-10-12T14:11:37.273Z,25.60
2018-10-12T14:14:06.169Z,30.23
2018-10-12T14:16:35.082Z,28.80
2018-10-12T14:19:04.058Z,25.70
2018-10-12T14:21:32.827Z,28.73
2018-10-12T14:24:01.723Z,29.73
2018-10-12T14:26:30.543Z,25.87
2018-10-12T14:28:59.841Z,25.17
2018-10-12T14:31:29.720Z,24.57
2018-10-12T14:33:59.689Z,25.60
2018-10-12T14:36:28.527Z,22.10
2018-10-12T14:38:57.338Z,28.03
2018-10-12T14:41:26.183Z,25.33
2018-10-12T14:43:55.028Z,34.60
2018-10-12T14:46:23.779Z,28.73
2018-10-12T14:48:52.653Z,30.60
2018-10-12T14:51:21.411Z,27.13
2018-10-12T14:53:50.301Z,25.87
2018-10-12T14:56:19.091Z,21.50
2018-10-12T14:58:47.904Z,23.30
2018-10-12T15:01:16.772Z,25.20
2018-10-12T15:03:45.673Z,33.13
2018-10-12T15:06:14.519Z,28.03
2018-10-12T15:08:43.317Z,30.67
2018-10-12T15:11:12.308Z,25.57
2018-10-12T15:13:41.396Z,25.87
2018-10-12T15:16:10.167Z,23.53
2018-10-12T15:18:39.291Z,23.03
2018-10-12T15:21:08.454Z,22.17
2018-10-12T15:23:37.280Z,21.00
2018-10-12T15:26:06.737Z,26.53
2018-10-12T15:28:35.560Z,24.30
2018-10-12T15:31:04.456Z,37.47
2018-10-12T15:33:33.438Z,30.40
2018-10-12T15:36:02.403Z,25.20
2018-10-12T15:38:31.439Z,25.33
2018-10-12T15:41:00.422Z,26.43
2018-10-12T15:43:29.406Z,28.33
2018-10-12T15:45:58.427Z,27.53
2018-10-12T15:48:28.010Z,28.50
2018-10-12T15:50:56.791Z,26.23
2018-10-12T15:53:25.713Z,26.93
2018-10-12T15:55:54.832Z,21.90
2018-10-12T15:58:23.788Z,30.40
2018-10-12T16:00:52.560Z,23.73
2018-10-12T16:03:21.329Z,26.50
2018-10-12T16:05:50.059Z,27.10
2018-10-12T16:08:19.335Z,31.87
2018-10-12T16:10:48.313Z,33.50
2018-10-12T16:13:17.715Z,30.90
2018-10-12T16:15:46.556Z,28.13
2018-10-12T16:18:15.866Z,26.70
2018-10-12T16:20:45.643Z,28.97
2018-10-12T16:23:17.253Z,29.27
2018-10-12T16:25:58.706Z,30.13
2018-10-12T16:28:28.847Z,30.87
2018-10-12T16:30:59.629Z,25.67
2018-10-12T16:33:28.518Z,31.03
2018-10-12T16:35:58.871Z,35.33
2018-10-12T16:38:27.639Z,31.53
2018-10-12T16:40:56.872Z,31.37
2018-10-12T16:43:25.783Z,31.20
2018-10-12T16:45:54.629Z,38.50
2018-10-12T16:48:23.996Z,41.93
2018-10-12T16:50:53.993Z,28.73
2018-10-12T16:53:22.828Z,30.70
2018-10-12T16:55:51.611Z,28.00
2018-10-12T16:58:20.501Z,27.00
2018-10-12T17:00:49.314Z,33.50
2018-10-12T17:03:18.555Z,34.23
2018-10-12T17:05:47.892Z,32.30
2018-10-12T17:08:17.049Z,35.67
2018-10-12T17:10:46.400Z,32.73
2018-10-12T17:13:15.531Z,48.47
2018-10-12T17:15:44.400Z,52.40
2018-10-12T17:18:14.037Z,42.07
2018-10-12T17:20:43.013Z,34.87
2018-10-12T17:23:11.807Z,34.23
2018-10-12T17:25:40.681Z,33.40
2018-10-12T17:28:09.512Z,36.97
2018-10-12T17:30:38.286Z,30.87
2018-10-12T17:33:07.444Z,39.30
2018-10-12T17:35:37.225Z,34.50
2018-10-12T17:38:07.677Z,43.17
2018-10-12T17:40:37.828Z,34.67
2018-10-12T17:43:06.821Z,39.70
2018-10-12T17:45:35.866Z,34.27
2018-10-12T17:48:05.056Z,37.80
2018-10-12T17:50:33.928Z,42.67
2018-10-12T17:53:02.877Z,46.70
2018-10-12T17:55:31.866Z,34.20
2018-10-12T17:58:00.674Z,39.27
2018-10-12T18:00:29.474Z,41.70
2018-10-12T18:02:58.905Z,41.53
2018-10-12T18:05:27.836Z,42.93
2018-10-12T18:07:56.701Z,45.43
2018-10-12T18:10:25.891Z,33.90
2018-10-12T18:12:55.321Z,41.20
2018-10-12T18:15:24.118Z,38.53
2018-10-12T18:17:53.214Z,42.23
2018-10-12T18:20:23.410Z,49.73
2018-10-12T18:22:52.299Z,38.57
2018-10-12T18:25:21.197Z,45.77
2018-10-12T18:27:50.588Z,44.60
2018-10-12T18:30:19.648Z,49.33
2018-10-12T18:32:48.485Z,44.13
2018-10-12T18:35:17.479Z,39.60
2018-10-12T18:37:46.580Z,43.27
2018-10-12T18:40:15.967Z,42.50
2018-10-12T18:42:44.921Z,44.77
2018-10-12T18:45:13.754Z,40.93
2018-10-12T18:47:43.119Z,50.20
2018-10-12T18:50:12.264Z,45.70
2018-10-12T18:52:41.143Z,46.47
2018-10-12T18:55:10.166Z,55.20
2018-10-12T18:57:39.037Z,40.13
2018-10-12T19:00:08.919Z,48.10
2018-10-12T19:02:37.764Z,39.70
2018-10-12T19:05:06.806Z,42.60
2018-10-12T19:07:35.886Z,45.27
2018-10-12T19:10:04.840Z,47.23
2018-10-12T19:12:39.878Z,62.10
2018-10-12T19:15:09.377Z,39.50
2018-10-12T19:17:38.683Z,39.57
2018-10-12T19:20:07.521Z,42.60
2018-10-12T19:22:36.426Z,44.03
2018-10-12T19:25:05.556Z,39.80
2018-10-12T19:27:34.410Z,41.87
2018-10-12T19:30:03.201Z,39.77
2018-10-12T19:32:32.036Z,41.73
2018-10-12T19:35:01.248Z,41.33
2018-10-12T19:37:29.995Z,41.33
2018-10-12T19:39:58.867Z,41.03
2018-10-12T19:42:27.621Z,39.87
2018-10-12T19:44:56.488Z,46.80
2018-10-12T19:47:25.314Z,41.40
2018-10-12T19:49:54.147Z,45.40
2018-10-12T19:52:22.949Z,45.17
2018-10-12T19:54:52.051Z,34.43
2018-10-12T19:57:20.854Z,44.43
2018-10-12T19:59:49.859Z,48.70
2018-10-12T20:02:19.046Z,42.00
2018-10-12T20:04:47.874Z,40.70
2018-10-12T20:07:17.126Z,42.70
2018-10-12T20:09:46.324Z,44.77
2018-10-12T20:12:15.210Z,37.60
2018-10-12T20:14:44.414Z,41.77
2018-10-12T20:17:13.238Z,46.90
2018-10-12T20:19:42.275Z,36.87
2018-10-12T20:22:12.207Z,41.03
2018-10-12T20:24:41.794Z,45.17
2018-10-12T20:27:10.828Z,52.93
2018-10-12T20:29:39.696Z,49.13
2018-10-12T20:32:09.482Z,40.67
2018-10-12T20:34:38.640Z,45.00
2018-10-12T20:37:08.109Z,50.23
2018-10-12T20:39:37.224Z,51.10
2018-10-12T20:42:06.459Z,48.90
2018-10-12T20:44:35.313Z,52.23
2018-10-12T20:47:04.061Z,41.10
2018-10-12T20:49:33.102Z,56.40
2018-10-12T20:52:01.873Z,43.17
2018-10-12T20:54:31.290Z,42.90
2018-10-12T20:57:00.292Z,46.30
2018-10-12T20:59:29.621Z,48.73
2018-10-12T21:02:00.037Z,40.80
2018-10-12T21:04:29.150Z,44.50
2018-10-12T21:07:03.344Z,43.47
2018-10-12T21:09:32.732Z,46.00
2018-10-12T21:12:02.389Z,40.33
2018-10-12T21:14:32.175Z,38.43
2018-10-12T21:17:03.128Z,38.77
2018-10-12T21:19:32.060Z,48.90
2018-10-12T21:22:00.785Z,50.43
2018-10-12T21:24:29.917Z,41.27
2018-10-12T21:26:58.977Z,41.57
2018-10-12T21:29:27.799Z,42.20
2018-10-12T21:31:56.508Z,40.37
2018-10-12T21:34:26.255Z,37.50
2018-10-12T21:36:55.440Z,40.83
2018-10-12T21:39:24.864Z,42.37
2018-10-12T21:41:54.134Z,41.60
2018-10-12T21:44:22.956Z,40.80
2018-10-12T21:46:51.751Z,44.53
2018-10-12T21:49:20.576Z,43.30
2018-10-12T21:51:49.423Z,46.03
2018-10-12T21:54:18.090Z,42.40
2018-10-12T21:56:47.198Z,44.23
2018-10-12T21:59:16.320Z,42.10
2018-10-12T22:01:45.019Z,47.57
2018-10-12T22:04:14.508Z,42.10
2018-10-12T22:06:43.260Z,46.23
2018-10-12T22:09:12.324Z,38.90
2018-10-12T22:11:41.430Z,39.93
2018-10-12T22:14:10.227Z,42.07
2018-10-12T22:16:39.082Z,38.27
2018-10-12T22:19:08.396Z,40.80
2018-10-12T22:21:37.531Z,44.57
2018-10-12T22:24:06.635Z,42.73
2018-10-12T22:26:36.885Z,43.13
2018-10-12T22:29:06.203Z,41.73
2018-10-12T22:31:36.165Z,44.40
2018-10-12T22:34:05.292Z,43.33
2018-10-12T22:36:34.405Z,41.23
2018-10-12T22:39:03.248Z,41.27
2018-10-12T22:41:32.343Z,42.63
2018-10-12T22:44:01.116Z,42.57
2018-10-12T22:46:30.020Z,42.30
2018-10-12T22:48:58.795Z,40.50
2018-10-12T22:51:27.645Z,42.20
2018-10-12T22:53:56.417Z,54.10
2018-10-12T22:56:25.579Z,41.33
2018-10-12T22:58:54.435Z,40.63
2018-10-12T23:01:23.635Z,46.13
2018-10-12T23:03:52.391Z,41.77
2018-10-12T23:06:21.167Z,38.10
2018-10-12T23:08:50.593Z,40.13
2018-10-12T23:11:19.734Z,49.13
2018-10-12T23:13:48.579Z,44.97
2018-10-12T23:16:17.346Z,45.53
2018-10-12T23:18:46.163Z,45.60
2018-10-12T23:21:14.889Z,41.57
2018-10-12T23:23:43.970Z,52.27
2018-10-12T23:26:12.753Z,45.00
2018-10-12T23:28:41.539Z,46.97
2018-10-12T23:31:10.553Z,42.00
2018-10-12T23:33:50.649Z,40.03
2018-10-12T23:36:20.349Z,37.43
2018-10-12T23:38:49.951Z,41.27
2018-10-12T23:41:19.872Z,44.30
2018-10-12T23:43:49.855Z,39.93
2018-10-12T23:46:19.956Z,41.63
2018-10-12T23:48:51.357Z,43.63
2018-10-12T23:51:21.178Z,45.50
2018-10-12T23:53:51.153Z,62.60
2018-10-12T23:56:21.357Z,38.30
2018-10-12T23:58:50.604Z,40.17
